»·PEaware :: N287JB KAMA-KPHX

N287JB :: KAMA-KPHX

FLIGHT INFORMATION

Flight Status: Arrived
Operator: Privately registered:
United States
More flights under this callsign
Pilot: John L. (16055)
Aircraft: Unknown
(VIPJ)
More flights by this aircraft type
Origin: KAMA Amarillo Intl
United States
Destination: KPHX Phoenix Sky Harbor Intl
United States
More flights between these airports :: More routes between these airports
Route: +PNH J6 ZUN JESSE2
File this flight plan on PilotEdge
Remarks: EVIC / G
Altitude:
(Current/Filed)
24,000ft
Speed:
(Current/Filed)
400kts
Departed: 13-Aug-17 03:30 PM
Arrived: 13-Aug-17 05:08 PM
Distance/Time
Traveled:
522nm/1:38
Distance/Time
To Go:
Arrived

Flight Plot

Page will automatically refresh every two minutes.

Flight plan parsing failed; only flown route is shown


Map Options




Map Legend


Flown Route
Filed Route
Departure Airport
Arrival Airport
Navaid (VOR, NDB)
Fix

Horizontal Profiles

Position Reports

Time Latitude Longitude Heading Altitude Ground
Speed
13-Aug-17 15:11 35.216844 -101.708987 225 3610ft 0kts
13-Aug-17 15:12 35.216844 -101.708987 225 3610ft 0kts
13-Aug-17 15:13 35.216844 -101.708987 225 3610ft 0kts
13-Aug-17 15:14 35.216844 -101.708987 225 3610ft 0kts
13-Aug-17 15:15 35.216844 -101.708987 225 3610ft 0kts
13-Aug-17 15:16 35.216844 -101.708987 225 3610ft 0kts
13-Aug-17 15:17 35.216844 -101.708987 225 3610ft 0kts
13-Aug-17 15:18 35.216844 -101.708987 225 3610ft 0kts
13-Aug-17 15:19 35.216844 -101.708987 225 3610ft 0kts
13-Aug-17 15:20 35.216844 -101.708987 225 3610ft 0kts
13-Aug-17 15:21 35.217183 -101.709711 316 3610ft 10kts
13-Aug-17 15:22 35.220651 -101.707866 46 3610ft 25kts
13-Aug-17 15:23 35.224759 -101.702707 45 3610ft 22kts
13-Aug-17 15:24 35.227973 -101.697625 135 3610ft 14kts
13-Aug-17 15:25 35.225143 -101.694460 137 3610ft 13kts
13-Aug-17 15:26 35.220731 -101.689511 136 3610ft 29kts
13-Aug-17 15:27 35.213892 -101.681868 136 3610ft 28kts
13-Aug-17 15:28 35.212972 -101.680115 48 3610ft 0kts
13-Aug-17 15:29 35.212972 -101.680115 48 3610ft 0kts
13-Aug-17 15:30 35.213010 -101.680063 47 3610ft 0kts
13-Aug-17 15:31 35.213010 -101.680063 47 3610ft 0kts
13-Aug-17 15:32 35.214202 -101.679571 320 3610ft 15kts
13-Aug-17 15:33 35.237424 -101.706176 315 4206ft 185kts
13-Aug-17 15:34 35.278470 -101.754248 315 6004ft 237kts
13-Aug-17 15:35 35.327498 -101.811765 315 6040ft 261kts
13-Aug-17 15:36 35.384467 -101.878676 316 9823ft 285kts
13-Aug-17 15:37 35.434470 -101.946631 289 12962ft 273kts
13-Aug-17 15:38 35.441196 -102.038818 276 13594ft 288kts
13-Aug-17 15:39 35.436443 -102.134001 267 17483ft 273kts
13-Aug-17 15:40 35.432479 -102.230004 268 19692ft 305kts
13-Aug-17 15:41 35.428317 -102.336869 267 22120ft 319kts
13-Aug-17 15:42 35.423999 -102.446240 267 23974ft 329kts
13-Aug-17 15:43 35.419233 -102.563532 267 23977ft 359kts
13-Aug-17 15:44 35.414043 -102.688733 267 23977ft 378kts
13-Aug-17 15:45 35.408500 -102.819504 267 23973ft 389kts
13-Aug-17 15:46 35.402694 -102.952913 267 23970ft 396kts
13-Aug-17 15:47 35.396635 -103.087853 267 23945ft 401kts
13-Aug-17 15:48 35.390426 -103.224352 266 23938ft 401kts
13-Aug-17 15:49 35.384015 -103.361073 266 23937ft 401kts
13-Aug-17 15:50 35.377483 -103.497083 266 23938ft 401kts
13-Aug-17 15:51 35.370795 -103.633171 266 23937ft 401kts
13-Aug-17 15:52 35.363949 -103.769262 266 23941ft 401kts
13-Aug-17 15:53 35.356935 -103.905716 266 23940ft 401kts
13-Aug-17 15:54 35.349775 -104.041978 266 23940ft 401kts
13-Aug-17 15:55 35.342459 -104.178280 266 23939ft 401kts
13-Aug-17 15:56 35.334955 -104.314766 266 23939ft 402kts
13-Aug-17 15:57 35.327345 -104.451177 266 23979ft 401kts
13-Aug-17 15:58 35.319607 -104.586763 266 24125ft 398kts
13-Aug-17 15:59 35.311749 -104.721700 265 24131ft 400kts
13-Aug-17 16:00 35.303680 -104.857757 265 24130ft 401kts
13-Aug-17 16:01 35.295461 -104.993695 265 24129ft 402kts
13-Aug-17 16:02 35.287059 -105.130031 265 24129ft 402kts
13-Aug-17 16:03 35.278496 -105.266404 265 24128ft 402kts
13-Aug-17 16:04 35.269816 -105.402597 265 24129ft 402kts
13-Aug-17 16:05 35.260919 -105.538690 265 24154ft 402kts
13-Aug-17 16:06 35.251968 -105.674078 265 24157ft 402kts
13-Aug-17 16:07 35.242796 -105.810369 265 24157ft 402kts
13-Aug-17 16:08 35.233432 -105.947169 265 24102ft 404kts
13-Aug-17 16:09 35.223962 -106.083232 265 24101ft 403kts
13-Aug-17 16:10 35.214305 -106.219748 265 24101ft 403kts
13-Aug-17 16:11 35.204496 -106.356333 265 24100ft 403kts
13-Aug-17 16:12 35.194569 -106.492199 265 24049ft 404kts
13-Aug-17 16:13 35.184408 -106.628979 265 24045ft 404kts
13-Aug-17 16:14 35.174177 -106.765004 264 24049ft 403kts
13-Aug-17 16:15 35.163747 -106.901505 264 24101ft 402kts
13-Aug-17 16:16 35.153215 -107.037280 264 24102ft 403kts
13-Aug-17 16:17 35.142474 -107.173737 264 24101ft 403kts
13-Aug-17 16:18 35.131626 -107.309591 264 24101ft 403kts
13-Aug-17 16:19 35.120599 -107.445744 264 24131ft 402kts
13-Aug-17 16:20 35.109481 -107.581117 264 24154ft 402kts
13-Aug-17 16:21 35.098190 -107.716645 264 24157ft 402kts
13-Aug-17 16:22 35.086746 -107.852268 264 24157ft 403kts
13-Aug-17 16:23 35.075095 -107.988475 264 24156ft 403kts
13-Aug-17 16:24 35.063348 -108.123998 264 24155ft 403kts
13-Aug-17 16:25 35.051445 -108.259538 264 24155ft 403kts
13-Aug-17 16:26 35.039437 -108.394529 264 24154ft 403kts
13-Aug-17 16:27 35.027209 -108.530257 264 24154ft 403kts
13-Aug-17 16:28 35.015001 -108.664041 263 24156ft 403kts
13-Aug-17 16:29 35.002509 -108.799292 263 24157ft 403kts
13-Aug-17 16:31 34.989793 -108.935294 263 24156ft 403kts
13-Aug-17 16:32 34.976985 -109.070637 263 24156ft 403kts
13-Aug-17 16:33 34.956253 -109.204534 254 24171ft 403kts
13-Aug-17 16:34 34.928198 -109.336685 256 24128ft 404kts
13-Aug-17 16:35 34.901001 -109.467948 256 24127ft 403kts
13-Aug-17 16:36 34.873888 -109.598176 256 24127ft 403kts
13-Aug-17 16:37 34.846395 -109.729444 255 24130ft 403kts
13-Aug-17 16:38 34.818710 -109.860909 255 24130ft 403kts
13-Aug-17 16:39 34.790699 -109.993136 255 24129ft 404kts
13-Aug-17 16:40 34.762671 -110.124646 256 24209ft 402kts
13-Aug-17 16:41 34.734036 -110.256161 255 24156ft 405kts
13-Aug-17 16:42 34.705454 -110.388304 255 24128ft 405kts
13-Aug-17 16:43 34.676779 -110.520432 255 24127ft 405kts
13-Aug-17 16:44 34.647970 -110.652471 255 24127ft 404kts
13-Aug-17 16:45 34.619168 -110.783735 255 24131ft 405kts
13-Aug-17 16:46 34.589735 -110.910199 243 23107ft 383kts
13-Aug-17 16:47 34.501939 -110.967814 198 21050ft 362kts
13-Aug-17 16:48 34.408917 -110.997531 196 20108ft 320kts
13-Aug-17 16:49 34.327836 -111.022527 197 20154ft 298kts
13-Aug-17 16:50 34.241698 -111.049037 196 20208ft 323kts
13-Aug-17 16:51 34.154810 -111.075670 196 18576ft 318kts
13-Aug-17 16:52 34.089007 -111.138129 228 16557ft 303kts
13-Aug-17 16:53 34.073706 -111.157663 228 16028ft 301kts
13-Aug-17 16:54 34.017301 -111.229714 228 14028ft 293kts
13-Aug-17 16:55 33.962294 -111.300127 228 12267ft 283kts
13-Aug-17 16:56 33.907854 -111.369619 228 12284ft 286kts
13-Aug-17 16:57 33.854599 -111.437397 228 12283ft 286kts
13-Aug-17 16:58 33.800990 -111.509197 230 12283ft 285kts
13-Aug-17 16:59 33.748782 -111.581231 230 12281ft 285kts
13-Aug-17 17:00 33.676407 -111.619071 200 11591ft 288kts
13-Aug-17 17:01 33.601968 -111.647735 200 9928ft 265kts
13-Aug-17 17:02 33.535944 -111.673244 199 7892ft 241kts
13-Aug-17 17:03 33.485795 -111.705991 229 5985ft 177kts
13-Aug-17 17:04 33.457423 -111.744735 229 4965ft 144kts
13-Aug-17 17:05 33.433450 -111.778970 229 3988ft 119kts
13-Aug-17 17:06 33.428596 -111.817942 266 3145ft 123kts
13-Aug-17 17:07 33.428644 -111.858579 267 3044ft 123kts
13-Aug-17 17:08 33.428720 -111.899531 267 2814ft 123kts
13-Aug-17 17:09 33.428804 -111.938989 267 2143ft 101kts
13-Aug-17 17:10 33.428671 -111.971871 269 1671ft 100kts
13-Aug-17 17:11 33.428814 -112.005367 268 1140ft 92kts
13-Aug-17 17:12 33.428872 -112.024035 269 1138ft 26kts
13-Aug-17 17:13 33.428000 -112.025968 153 1138ft 0kts
13-Aug-17 17:13 33.427757 -112.024976 89 1138ft 8kts
13-Aug-17 17:14 33.426757 -112.023674 138 1138ft 5kts
13-Aug-17 17:16 33.426477 -112.022965 278 1138ft 0kts
13-Aug-17 17:17 33.426477 -112.022965 278 1138ft 0kts
13-Aug-17 17:18 33.426477 -112.022965 278 1138ft 0kts
13-Aug-17 17:19 33.426477 -112.022965 278 1138ft 0kts
13-Aug-17 17:20 33.426477 -112.022965 278 1138ft 0kts
13-Aug-17 17:20 33.426477 -112.022965 278 1138ft 0kts
13-Aug-17 17:21 33.426477 -112.022965 278 1138ft 0kts

Navigation Log

Ident Type
Flight plan parsing failed, navigation log unavailable